Main page
METAR-TAF:

METAR-TAF

Airports :

Ålesund Airport. Vigra

Ålesund, Norway

latitude: 62-34N, longitude: 006-07E, elevation: 2 m

Current weather observation

The report was made 33 minutes ago, at 17:20 UTC
Wind 4 kt from the East/Northeast
Temperature 13°C
Humidity 82%
Pressure 1012 hPa
Visibility 10 km or more
no clouds below 1500 m and no cumulonimbus

METAR: ENAL 211720Z 07004KT CAVOK 13/10 Q1012

Time: 19:53 (17:53 UTC)

Forecast

The report was made 3 hours and 53 minutes ago, at 14:00 UTC
Forecast valid from 21 at 15 UTC to 21 at 22 UTC
Wind 8 kt from the North/Northeast
Visibility 10 km or more
no clouds below 1500 m and no cumulonimbus

TAF: ENAL 211400Z 2115/2122 03008KT CAVOK

Weather observations and forecasts of more than 4000 airports (METAR and TAF reports).

The available stations are represented by yellow and red dots on the map.

Hover mouse over dot to see the name of the station.

Then click to see weather observations and forecasts.

To change the map : click on the green buttons with a black cross to zoom in, on the green button with a dash to zoom out, or on the green arrows for adjacent maps.


METAR-TAF: